sensor_id;sensor_type;location;lat;lon;timestamp;pressure;altitude;pressure_sealevel;temperature;humidity
62632;BME280;48703;51.248;-0.546;2023-02-22T00:00:35;100639;;;6.01;92.53
62632;BME280;48703;51.248;-0.546;2023-02-22T00:03:37;100638;;;6.02;92.70
62632;BME280;48703;51.248;-0.546;2023-02-22T00:06:39;100637;;;6.01;92.89
62632;BME280;48703;51.248;-0.546;2023-02-22T00:09:41;100638;;;6.00;92.99
62632;BME280;48703;51.248;-0.546;2023-02-22T00:12:43;100637;;;5.96;93.41
62632;BME280;48703;51.248;-0.546;2023-02-22T00:15:45;100635;;;5.94;93.56
62632;BME280;48703;51.248;-0.546;2023-02-22T00:18:47;100633;;;5.92;93.68
62632;BME280;48703;51.248;-0.546;2023-02-22T00:21:50;100632;;;5.93;93.44
62632;BME280;48703;51.248;-0.546;2023-02-22T00:24:50;100629;;;5.93;93.74
62632;BME280;48703;51.248;-0.546;2023-02-22T00:27:52;100629;;;5.92;93.70
62632;BME280;48703;51.248;-0.546;2023-02-22T00:30:54;100626;;;5.90;93.57
62632;BME280;48703;51.248;-0.546;2023-02-22T00:33:56;100622;;;5.91;93.59
62632;BME280;48703;51.248;-0.546;2023-02-22T00:36:58;100616;;;5.91;93.86
62632;BME280;48703;51.248;-0.546;2023-02-22T00:40:00;100613;;;5.91;94.09
62632;BME280;48703;51.248;-0.546;2023-02-22T00:43:03;100612;;;5.90;94.14
62632;BME280;48703;51.248;-0.546;2023-02-22T00:46:04;100613;;;5.91;93.97
62632;BME280;48703;51.248;-0.546;2023-02-22T00:49:06;100608;;;5.94;94.25
62632;BME280;48703;51.248;-0.546;2023-02-22T00:52:08;100602;;;5.93;94.06
62632;BME280;48703;51.248;-0.546;2023-02-22T00:55:14;100600;;;5.93;94.03
62632;BME280;48703;51.248;-0.546;2023-02-22T00:58:11;100597;;;5.92;93.94
62632;BME280;48703;51.248;-0.546;2023-02-22T01:01:13;100598;;;5.93;94.39
62632;BME280;48703;51.248;-0.546;2023-02-22T01:04:15;100598;;;5.93;94.02
62632;BME280;48703;51.248;-0.546;2023-02-22T01:07:17;100602;;;5.93;94.22
62632;BME280;48703;51.248;-0.546;2023-02-22T01:10:20;100609;;;5.94;94.24
62632;BME280;48703;51.248;-0.546;2023-02-22T01:13:21;100607;;;5.93;94.12
62632;BME280;48703;51.248;-0.546;2023-02-22T01:16:23;100604;;;5.92;94.37
62632;BME280;48703;51.248;-0.546;2023-02-22T01:19:25;100604;;;5.93;94.10
62632;BME280;48703;51.248;-0.546;2023-02-22T01:22:27;100605;;;5.95;94.17
62632;BME280;48703;51.248;-0.546;2023-02-22T01:25:29;100604;;;5.94;94.03
62632;BME280;48703;51.248;-0.546;2023-02-22T01:28:31;100599;;;5.95;94.04
62632;BME280;48703;51.248;-0.546;2023-02-22T01:31:33;100592;;;5.92;93.96
62632;BME280;48703;51.248;-0.546;2023-02-22T01:34:35;100587;;;5.93;94.36
62632;BME280;48703;51.248;-0.546;2023-02-22T01:37:37;100586;;;5.91;94.14
62632;BME280;48703;51.248;-0.546;2023-02-22T01:40:40;100586;;;5.88;94.28
62632;BME280;48703;51.248;-0.546;2023-02-22T01:43:40;100587;;;5.90;94.23
62632;BME280;48703;51.248;-0.546;2023-02-22T01:46:42;100591;;;5.93;94.23
62632;BME280;48703;51.248;-0.546;2023-02-22T01:49:45;100594;;;5.93;94.43
62632;BME280;48703;51.248;-0.546;2023-02-22T01:52:46;100592;;;5.92;93.94
62632;BME280;48703;51.248;-0.546;2023-02-22T01:55:48;100591;;;5.94;94.04
62632;BME280;48703;51.248;-0.546;2023-02-22T01:58:51;100588;;;5.95;93.98
62632;BME280;48703;51.248;-0.546;2023-02-22T02:01:52;100585;;;5.95;93.68
62632;BME280;48703;51.248;-0.546;2023-02-22T02:04:54;100581;;;5.95;94.02
62632;BME280;48703;51.248;-0.546;2023-02-22T02:07:56;100578;;;5.94;94.34
62632;BME280;48703;51.248;-0.546;2023-02-22T02:10:58;100568;;;5.95;93.73
62632;BME280;48703;51.248;-0.546;2023-02-22T02:14:00;100564;;;5.97;93.52
62632;BME280;48703;51.248;-0.546;2023-02-22T02:17:01;100565;;;5.98;93.52
62632;BME280;48703;51.248;-0.546;2023-02-22T02:20:04;100566;;;5.97;93.94
62632;BME280;48703;51.248;-0.546;2023-02-22T02:23:07;100565;;;5.96;93.68
62632;BME280;48703;51.248;-0.546;2023-02-22T02:28:42;100561;;;5.97;93.59
62632;BME280;48703;51.248;-0.546;2023-02-22T02:29:15;100565;;;5.96;93.97
62632;BME280;48703;51.248;-0.546;2023-02-22T02:32:15;100567;;;5.98;94.00
62632;BME280;48703;51.248;-0.546;2023-02-22T02:35:13;100563;;;5.97;94.05
62632;BME280;48703;51.248;-0.546;2023-02-22T02:38:19;100555;;;5.96;94.28
62632;BME280;48703;51.248;-0.546;2023-02-22T02:41:18;100550;;;5.97;94.45
62632;BME280;48703;51.248;-0.546;2023-02-22T02:44:19;100548;;;5.97;94.47
62632;BME280;48703;51.248;-0.546;2023-02-22T02:47:22;100550;;;5.97;94.56
62632;BME280;48703;51.248;-0.546;2023-02-22T02:50:24;100551;;;5.95;94.47
62632;BME280;48703;51.248;-0.546;2023-02-22T02:53:26;100548;;;5.94;94.40
62632;BME280;48703;51.248;-0.546;2023-02-22T02:56:27;100543;;;5.93;94.54
62632;BME280;48703;51.248;-0.546;2023-02-22T02:59:29;100538;;;5.92;94.60
62632;BME280;48703;51.248;-0.546;2023-02-22T03:02:35;100539;;;5.94;94.33
62632;BME280;48703;51.248;-0.546;2023-02-22T03:05:37;100544;;;5.94;94.48
62632;BME280;48703;51.248;-0.546;2023-02-22T03:08:37;100549;;;5.93;94.41
62632;BME280;48703;51.248;-0.546;2023-02-22T03:11:38;100541;;;5.94;94.52
62632;BME280;48703;51.248;-0.546;2023-02-22T03:14:39;100542;;;5.94;94.52
62632;BME280;48703;51.248;-0.546;2023-02-22T03:17:43;100541;;;5.94;94.18
62632;BME280;48703;51.248;-0.546;2023-02-22T03:20:43;100534;;;5.96;94.01
62632;BME280;48703;51.248;-0.546;2023-02-22T03:23:44;100531;;;5.95;94.05
62632;BME280;48703;51.248;-0.546;2023-02-22T03:26:48;100530;;;5.97;94.51
62632;BME280;48703;51.248;-0.546;2023-02-22T03:29:48;100522;;;5.96;94.41
62632;BME280;48703;51.248;-0.546;2023-02-22T03:32:51;100515;;;5.96;94.00
62632;BME280;48703;51.248;-0.546;2023-02-22T03:35:53;100510;;;5.97;94.16
62632;BME280;48703;51.248;-0.546;2023-02-22T03:38:54;100509;;;5.97;94.07
62632;BME280;48703;51.248;-0.546;2023-02-22T03:41:56;100502;;;6.00;94.26
62632;BME280;48703;51.248;-0.546;2023-02-22T03:44:59;100500;;;6.01;94.33
62632;BME280;48703;51.248;-0.546;2023-02-22T03:48:00;100499;;;6.01;94.47
62632;BME280;48703;51.248;-0.546;2023-02-22T03:51:01;100498;;;6.02;94.28
62632;BME280;48703;51.248;-0.546;2023-02-22T03:54:03;100493;;;6.01;94.15
62632;BME280;48703;51.248;-0.546;2023-02-22T03:57:06;100489;;;6.02;94.09
62632;BME280;48703;51.248;-0.546;2023-02-22T04:00:08;100485;;;6.03;94.22
62632;BME280;48703;51.248;-0.546;2023-02-22T04:03:09;100491;;;6.04;94.78
62632;BME280;48703;51.248;-0.546;2023-02-22T04:06:11;100497;;;6.03;94.28
62632;BME280;48703;51.248;-0.546;2023-02-22T04:09:13;100488;;;6.04;93.90
62632;BME280;48703;51.248;-0.546;2023-02-22T04:12:15;100486;;;6.04;94.07
62632;BME280;48703;51.248;-0.546;2023-02-22T04:15:17;100492;;;6.07;94.76
62632;BME280;48703;51.248;-0.546;2023-02-22T04:18:19;100494;;;6.08;94.27
62632;BME280;48703;51.248;-0.546;2023-02-22T04:21:20;100494;;;6.07;94.14
62632;BME280;48703;51.248;-0.546;2023-02-22T04:24:22;100488;;;6.07;94.44
62632;BME280;48703;51.248;-0.546;2023-02-22T04:27:24;100482;;;6.08;94.38
62632;BME280;48703;51.248;-0.546;2023-02-22T04:30:26;100482;;;6.09;94.22
62632;BME280;48703;51.248;-0.546;2023-02-22T04:33:28;100476;;;6.10;94.28
62632;BME280;48703;51.248;-0.546;2023-02-22T04:36:30;100465;;;6.10;94.28
62632;BME280;48703;51.248;-0.546;2023-02-22T04:39:32;100468;;;6.09;94.36
62632;BME280;48703;51.248;-0.546;2023-02-22T04:42:34;100468;;;6.10;94.39
62632;BME280;48703;51.248;-0.546;2023-02-22T04:45:36;100462;;;6.10;94.10
62632;BME280;48703;51.248;-0.546;2023-02-22T04:48:38;100461;;;6.11;94.35
62632;BME280;48703;51.248;-0.546;2023-02-22T04:51:40;100469;;;6.13;94.40
62632;BME280;48703;51.248;-0.546;2023-02-22T04:54:42;100470;;;6.14;94.10
62632;BME280;48703;51.248;-0.546;2023-02-22T04:57:44;100465;;;6.14;94.07
62632;BME280;48703;51.248;-0.546;2023-02-22T05:00:45;100464;;;6.15;94.17
62632;BME280;48703;51.248;-0.546;2023-02-22T05:03:47;100465;;;6.15;94.15
62632;BME280;48703;51.248;-0.546;2023-02-22T05:06:49;100470;;;6.15;94.14
62632;BME280;48703;51.248;-0.546;2023-02-22T05:09:51;100468;;;6.17;94.12
62632;BME280;48703;51.248;-0.546;2023-02-22T05:12:53;100469;;;6.18;94.14
62632;BME280;48703;51.248;-0.546;2023-02-22T05:15:55;100462;;;6.18;94.05
62632;BME280;48703;51.248;-0.546;2023-02-22T05:18:57;100458;;;6.18;94.18
62632;BME280;48703;51.248;-0.546;2023-02-22T05:21:59;100463;;;6.19;94.19
62632;BME280;48703;51.248;-0.546;2023-02-22T05:25:01;100461;;;6.19;94.22
62632;BME280;48703;51.248;-0.546;2023-02-22T05:28:04;100456;;;6.20;94.16
62632;BME280;48703;51.248;-0.546;2023-02-22T05:31:05;100456;;;6.21;94.30
62632;BME280;48703;51.248;-0.546;2023-02-22T05:34:07;100455;;;6.21;94.29
62632;BME280;48703;51.248;-0.546;2023-02-22T05:37:09;100456;;;6.21;94.19
62632;BME280;48703;51.248;-0.546;2023-02-22T05:40:11;100455;;;6.21;94.43
62632;BME280;48703;51.248;-0.546;2023-02-22T05:43:13;100450;;;6.22;94.27
62632;BME280;48703;51.248;-0.546;2023-02-22T05:46:14;100450;;;6.21;94.20
62632;BME280;48703;51.248;-0.546;2023-02-22T05:49:16;100446;;;6.21;94.24
62632;BME280;48703;51.248;-0.546;2023-02-22T05:52:20;100448;;;6.22;94.25
62632;BME280;48703;51.248;-0.546;2023-02-22T05:55:21;100450;;;6.22;94.39
62632;BME280;48703;51.248;-0.546;2023-02-22T05:58:22;100454;;;6.22;94.32
62632;BME280;48703;51.248;-0.546;2023-02-22T06:01:24;100451;;;6.23;94.33
62632;BME280;48703;51.248;-0.546;2023-02-22T06:04:26;100441;;;6.22;94.33
62632;BME280;48703;51.248;-0.546;2023-02-22T06:07:28;100436;;;6.23;94.17
62632;BME280;48703;51.248;-0.546;2023-02-22T06:10:30;100432;;;6.24;94.16
62632;BME280;48703;51.248;-0.546;2023-02-22T06:13:32;100433;;;6.22;94.25
62632;BME280;48703;51.248;-0.546;2023-02-22T06:16:34;100437;;;6.22;94.25
62632;BME280;48703;51.248;-0.546;2023-02-22T06:19:36;100439;;;6.22;94.48
62632;BME280;48703;51.248;-0.546;2023-02-22T06:22:37;100442;;;6.22;94.66
62632;BME280;48703;51.248;-0.546;2023-02-22T06:25:39;100442;;;6.22;94.77
62632;BME280;48703;51.248;-0.546;2023-02-22T06:28:41;100440;;;6.22;94.72
62632;BME280;48703;51.248;-0.546;2023-02-22T06:31:43;100438;;;6.22;94.84
62632;BME280;48703;51.248;-0.546;2023-02-22T06:34:45;100441;;;6.22;95.03
62632;BME280;48703;51.248;-0.546;2023-02-22T06:37:47;100447;;;6.22;95.18
62632;BME280;48703;51.248;-0.546;2023-02-22T06:40:49;100446;;;6.20;95.26
62632;BME280;48703;51.248;-0.546;2023-02-22T06:43:51;100445;;;6.19;95.27
62632;BME280;48703;51.248;-0.546;2023-02-22T06:46:53;100448;;;6.21;95.46
62632;BME280;48703;51.248;-0.546;2023-02-22T06:49:55;100449;;;6.21;95.10
62632;BME280;48703;51.248;-0.546;2023-02-22T06:52:57;100448;;;6.21;95.06
62632;BME280;48703;51.248;-0.546;2023-02-22T06:55:59;100451;;;6.22;95.33
62632;BME280;48703;51.248;-0.546;2023-02-22T06:59:01;100455;;;6.23;95.09
62632;BME280;48703;51.248;-0.546;2023-02-22T07:02:03;100457;;;6.25;95.30
62632;BME280;48703;51.248;-0.546;2023-02-22T07:05:04;100459;;;6.25;95.49
62632;BME280;48703;51.248;-0.546;2023-02-22T07:08:06;100461;;;6.26;95.36
62632;BME280;48703;51.248;-0.546;2023-02-22T07:11:08;100461;;;6.27;95.54
62632;BME280;48703;51.248;-0.546;2023-02-22T07:14:10;100464;;;6.28;95.46
62632;BME280;48703;51.248;-0.546;2023-02-22T07:17:12;100465;;;6.29;95.18
62632;BME280;48703;51.248;-0.546;2023-02-22T07:20:14;100464;;;6.30;95.30
62632;BME280;48703;51.248;-0.546;2023-02-22T07:23:16;100466;;;6.31;95.38
62632;BME280;48703;51.248;-0.546;2023-02-22T07:26:18;100467;;;6.31;95.50
62632;BME280;48703;51.248;-0.546;2023-02-22T07:29:20;100465;;;6.33;95.46
62632;BME280;48703;51.248;-0.546;2023-02-22T07:32:22;100461;;;6.34;95.39
62632;BME280;48703;51.248;-0.546;2023-02-22T07:35:24;100458;;;6.35;95.41
62632;BME280;48703;51.248;-0.546;2023-02-22T07:38:26;100456;;;6.37;95.35
62632;BME280;48703;51.248;-0.546;2023-02-22T07:41:28;100459;;;6.37;95.60
62632;BME280;48703;51.248;-0.546;2023-02-22T07:44:30;100465;;;6.37;95.74
62632;BME280;48703;51.248;-0.546;2023-02-22T07:47:31;100469;;;6.38;95.80
62632;BME280;48703;51.248;-0.546;2023-02-22T07:50:34;100474;;;6.39;95.66
62632;BME280;48703;51.248;-0.546;2023-02-22T07:53:35;100476;;;6.41;95.71
62632;BME280;48703;51.248;-0.546;2023-02-22T07:56:42;100476;;;6.44;96.09
62632;BME280;48703;51.248;-0.546;2023-02-22T07:59:39;100478;;;6.45;95.81
62632;BME280;48703;51.248;-0.546;2023-02-22T08:02:42;100484;;;6.47;95.74
62632;BME280;48703;51.248;-0.546;2023-02-22T08:05:44;100487;;;6.49;95.86
62632;BME280;48703;51.248;-0.546;2023-02-22T08:08:45;100493;;;6.51;95.77
62632;BME280;48703;51.248;-0.546;2023-02-22T08:11:47;100494;;;6.52;95.80
62632;BME280;48703;51.248;-0.546;2023-02-22T08:14:49;100495;;;6.53;95.73
62632;BME280;48703;51.248;-0.546;2023-02-22T08:17:51;100497;;;6.54;95.70
62632;BME280;48703;51.248;-0.546;2023-02-22T08:20:53;100500;;;6.55;95.67
62632;BME280;48703;51.248;-0.546;2023-02-22T08:23:55;100498;;;6.56;95.61
62632;BME280;48703;51.248;-0.546;2023-02-22T08:26:57;100498;;;6.57;95.60
62632;BME280;48703;51.248;-0.546;2023-02-22T08:29:58;100493;;;6.58;95.66
62632;BME280;48703;51.248;-0.546;2023-02-22T08:33:01;100493;;;6.58;95.67
62632;BME280;48703;51.248;-0.546;2023-02-22T08:36:03;100494;;;6.60;95.62
62632;BME280;48703;51.248;-0.546;2023-02-22T08:39:04;100496;;;6.60;95.43
62632;BME280;48703;51.248;-0.546;2023-02-22T08:42:06;100498;;;6.62;95.69
62632;BME280;48703;51.248;-0.546;2023-02-22T08:45:08;100494;;;6.63;95.73
62632;BME280;48703;51.248;-0.546;2023-02-22T08:48:10;100498;;;6.65;95.68
62632;BME280;48703;51.248;-0.546;2023-02-22T08:51:12;100500;;;6.68;95.65
62632;BME280;48703;51.248;-0.546;2023-02-22T08:54:14;100499;;;6.70;95.59
62632;BME280;48703;51.248;-0.546;2023-02-22T08:57:16;100496;;;6.73;95.59
62632;BME280;48703;51.248;-0.546;2023-02-22T09:00:18;100497;;;6.74;95.68
62632;BME280;48703;51.248;-0.546;2023-02-22T09:03:20;100497;;;6.76;95.75
62632;BME280;48703;51.248;-0.546;2023-02-22T09:06:22;100498;;;6.79;95.65
62632;BME280;48703;51.248;-0.546;2023-02-22T09:09:23;100502;;;6.82;95.39
62632;BME280;48703;51.248;-0.546;2023-02-22T09:12:25;100502;;;6.83;95.36
62632;BME280;48703;51.248;-0.546;2023-02-22T09:15:27;100503;;;6.85;95.51
62632;BME280;48703;51.248;-0.546;2023-02-22T09:18:29;100503;;;6.87;95.44
62632;BME280;48703;51.248;-0.546;2023-02-22T09:21:31;100504;;;6.90;95.39
62632;BME280;48703;51.248;-0.546;2023-02-22T09:24:33;100503;;;6.93;95.31
62632;BME280;48703;51.248;-0.546;2023-02-22T09:27:35;100502;;;6.96;95.38
62632;BME280;48703;51.248;-0.546;2023-02-22T09:30:37;100504;;;6.98;95.27
62632;BME280;48703;51.248;-0.546;2023-02-22T09:33:39;100506;;;7.01;95.20
62632;BME280;48703;51.248;-0.546;2023-02-22T09:36:41;100508;;;7.04;95.13
62632;BME280;48703;51.248;-0.546;2023-02-22T09:39:43;100507;;;7.07;95.28
62632;BME280;48703;51.248;-0.546;2023-02-22T09:42:46;100507;;;7.11;95.35
62632;BME280;48703;51.248;-0.546;2023-02-22T09:45:50;100508;;;7.14;95.26
62632;BME280;48703;51.248;-0.546;2023-02-22T09:48:52;100507;;;7.17;95.32
62632;BME280;48703;51.248;-0.546;2023-02-22T09:51:52;100504;;;7.22;95.24
62632;BME280;48703;51.248;-0.546;2023-02-22T09:54:53;100501;;;7.25;95.23
62632;BME280;48703;51.248;-0.546;2023-02-22T09:57:54;100504;;;7.29;95.12
62632;BME280;48703;51.248;-0.546;2023-02-22T10:00:57;100508;;;7.34;95.18
62632;BME280;48703;51.248;-0.546;2023-02-22T10:04:00;100509;;;7.39;95.25
62632;BME280;48703;51.248;-0.546;2023-02-22T10:07:03;100507;;;7.44;95.16
62632;BME280;48703;51.248;-0.546;2023-02-22T10:10:02;100504;;;7.48;95.17
62632;BME280;48703;51.248;-0.546;2023-02-22T10:13:07;100501;;;7.53;95.05
62632;BME280;48703;51.248;-0.546;2023-02-22T10:16:08;100497;;;7.58;95.09
62632;BME280;48703;51.248;-0.546;2023-02-22T10:19:13;100496;;;7.63;95.18
62632;BME280;48703;51.248;-0.546;2023-02-22T10:22:13;100495;;;7.69;95.17
62632;BME280;48703;51.248;-0.546;2023-02-22T10:25:13;100498;;;7.74;94.98
62632;BME280;48703;51.248;-0.546;2023-02-22T10:28:15;100504;;;7.79;94.88
62632;BME280;48703;51.248;-0.546;2023-02-22T10:31:18;100506;;;7.81;94.83
62632;BME280;48703;51.248;-0.546;2023-02-22T10:34:18;100504;;;7.84;94.90
62632;BME280;48703;51.248;-0.546;2023-02-22T10:37:22;100504;;;7.87;94.93
62632;BME280;48703;51.248;-0.546;2023-02-22T10:40:22;100503;;;7.87;94.99
62632;BME280;48703;51.248;-0.546;2023-02-22T10:43:23;100504;;;7.88;95.02
62632;BME280;48703;51.248;-0.546;2023-02-22T10:46:26;100506;;;7.88;95.20
62632;BME280;48703;51.248;-0.546;2023-02-22T10:49:28;100506;;;7.88;94.97
62632;BME280;48703;51.248;-0.546;2023-02-22T10:52:30;100505;;;7.88;94.97
62632;BME280;48703;51.248;-0.546;2023-02-22T10:55:31;100505;;;7.90;94.94
62632;BME280;48703;51.248;-0.546;2023-02-22T10:58:50;100507;;;7.92;95.16
62632;BME280;48703;51.248;-0.546;2023-02-22T11:01:36;100507;;;7.94;95.16
62632;BME280;48703;51.248;-0.546;2023-02-22T11:04:45;100508;;;7.95;95.19
62632;BME280;48703;51.248;-0.546;2023-02-22T11:07:39;100508;;;7.99;95.34
62632;BME280;48703;51.248;-0.546;2023-02-22T11:10:41;100509;;;8.02;95.34
62632;BME280;48703;51.248;-0.546;2023-02-22T11:13:42;100509;;;8.05;95.27
62632;BME280;48703;51.248;-0.546;2023-02-22T11:16:45;100512;;;8.07;95.08
62632;BME280;48703;51.248;-0.546;2023-02-22T11:19:47;100514;;;8.07;94.88
62632;BME280;48703;51.248;-0.546;2023-02-22T11:22:48;100512;;;8.08;94.71
62632;BME280;48703;51.248;-0.546;2023-02-22T11:25:50;100507;;;8.08;94.72
62632;BME280;48703;51.248;-0.546;2023-02-22T11:28:52;100506;;;8.09;94.72
62632;BME280;48703;51.248;-0.546;2023-02-22T11:31:54;100508;;;8.10;94.64
62632;BME280;48703;51.248;-0.546;2023-02-22T11:34:56;100508;;;8.09;94.51
62632;BME280;48703;51.248;-0.546;2023-02-22T11:38:08;100509;;;8.11;94.85
62632;BME280;48703;51.248;-0.546;2023-02-22T11:41:05;100514;;;8.11;94.93
62632;BME280;48703;51.248;-0.546;2023-02-22T11:44:11;100511;;;8.12;94.75
62632;BME280;48703;51.248;-0.546;2023-02-22T11:47:04;100512;;;8.12;94.83
62632;BME280;48703;51.248;-0.546;2023-02-22T11:50:08;100509;;;8.12;94.88
62632;BME280;48703;51.248;-0.546;2023-02-22T11:53:11;100506;;;8.14;94.61
62632;BME280;48703;51.248;-0.546;2023-02-22T11:56:12;100511;;;8.15;94.13
62632;BME280;48703;51.248;-0.546;2023-02-22T11:59:14;100515;;;8.16;94.54
62632;BME280;48703;51.248;-0.546;2023-02-22T12:02:21;100517;;;8.15;93.97
62632;BME280;48703;51.248;-0.546;2023-02-22T12:05:18;100519;;;8.15;94.41
62632;BME280;48703;51.248;-0.546;2023-02-22T12:08:19;100518;;;8.18;94.64
62632;BME280;48703;51.248;-0.546;2023-02-22T12:11:21;100516;;;8.19;94.40
62632;BME280;48703;51.248;-0.546;2023-02-22T12:14:23;100516;;;8.19;94.14
62632;BME280;48703;51.248;-0.546;2023-02-22T12:17:41;100512;;;8.21;94.16
62632;BME280;48703;51.248;-0.546;2023-02-22T12:20:26;100510;;;8.21;94.23
62632;BME280;48703;51.248;-0.546;2023-02-22T12:23:28;100506;;;8.23;94.20
62632;BME280;48703;51.248;-0.546;2023-02-22T12:26:30;100504;;;8.24;94.21
62632;BME280;48703;51.248;-0.546;2023-02-22T12:29:33;100505;;;8.26;94.34
62632;BME280;48703;51.248;-0.546;2023-02-22T12:32:34;100505;;;8.28;94.06
62632;BME280;48703;51.248;-0.546;2023-02-22T12:35:35;100506;;;8.29;94.25
62632;BME280;48703;51.248;-0.546;2023-02-22T12:38:38;100506;;;8.33;94.69
62632;BME280;48703;51.248;-0.546;2023-02-22T12:41:41;100500;;;8.35;94.41
62632;BME280;48703;51.248;-0.546;2023-02-22T12:44:41;100499;;;8.39;94.27
62632;BME280;48703;51.248;-0.546;2023-02-22T12:47:44;100497;;;8.43;94.49
62632;BME280;48703;51.248;-0.546;2023-02-22T12:50:44;100497;;;8.50;94.65
62632;BME280;48703;51.248;-0.546;2023-02-22T12:53:49;100498;;;8.57;94.62
62632;BME280;48703;51.248;-0.546;2023-02-22T12:56:50;100499;;;8.62;93.44
62632;BME280;48703;51.248;-0.546;2023-02-22T12:59:51;100502;;;8.70;93.59
62632;BME280;48703;51.248;-0.546;2023-02-22T13:02:55;100504;;;8.75;93.22
62632;BME280;48703;51.248;-0.546;2023-02-22T13:05:55;100503;;;8.76;92.60
62632;BME280;48703;51.248;-0.546;2023-02-22T13:09:02;100502;;;8.76;92.10
62632;BME280;48703;51.248;-0.546;2023-02-22T13:11:58;100501;;;8.79;92.46
62632;BME280;48703;51.248;-0.546;2023-02-22T13:15:01;100502;;;8.79;91.38
62632;BME280;48703;51.248;-0.546;2023-02-22T13:18:04;100502;;;8.82;91.67
62632;BME280;48703;51.248;-0.546;2023-02-22T13:21:04;100501;;;8.83;91.31
62632;BME280;48703;51.248;-0.546;2023-02-22T13:24:07;100500;;;8.84;91.69
62632;BME280;48703;51.248;-0.546;2023-02-22T13:27:08;100499;;;8.84;90.98
62632;BME280;48703;51.248;-0.546;2023-02-22T13:30:14;100500;;;8.83;91.00
62632;BME280;48703;51.248;-0.546;2023-02-22T13:33:17;100498;;;8.80;89.99
62632;BME280;48703;51.248;-0.546;2023-02-22T13:36:17;100493;;;8.78;90.86
62632;BME280;48703;51.248;-0.546;2023-02-22T13:39:20;100494;;;8.76;89.46
62632;BME280;48703;51.248;-0.546;2023-02-22T13:44:23;100487;;;8.86;90.46
62632;BME280;48703;51.248;-0.546;2023-02-22T13:47:28;100491;;;8.93;90.06
62632;BME280;48703;51.248;-0.546;2023-02-22T13:50:33;100496;;;8.97;89.67
62632;BME280;48703;51.248;-0.546;2023-02-22T13:53:25;100496;;;8.99;89.68
62632;BME280;48703;51.248;-0.546;2023-02-22T13:56:26;100497;;;9.02;89.44
62632;BME280;48703;51.248;-0.546;2023-02-22T13:59:29;100496;;;9.03;88.03
62632;BME280;48703;51.248;-0.546;2023-02-22T14:02:55;100496;;;9.06;87.97
62632;BME280;48703;51.248;-0.546;2023-02-22T14:05:45;100496;;;9.05;86.43
62632;BME280;48703;51.248;-0.546;2023-02-22T14:08:52;100497;;;9.07;86.66
62632;BME280;48703;51.248;-0.546;2023-02-22T14:11:40;100493;;;9.08;86.44
62632;BME280;48703;51.248;-0.546;2023-02-22T14:14:39;100493;;;9.09;86.22
62632;BME280;48703;51.248;-0.546;2023-02-22T14:17:40;100494;;;9.13;86.94
62632;BME280;48703;51.248;-0.546;2023-02-22T14:20:41;100498;;;9.13;85.96
62632;BME280;48703;51.248;-0.546;2023-02-22T14:23:44;100501;;;9.16;87.32
62632;BME280;48703;51.248;-0.546;2023-02-22T14:26:54;100503;;;9.13;86.35
62632;BME280;48703;51.248;-0.546;2023-02-22T14:29:48;100506;;;9.04;86.61
62632;BME280;48703;51.248;-0.546;2023-02-22T14:32:49;100513;;;8.93;85.30
62632;BME280;48703;51.248;-0.546;2023-02-22T14:35:51;100512;;;8.89;86.20
62632;BME280;48703;51.248;-0.546;2023-02-22T14:38:53;100514;;;8.86;86.11
62632;BME280;48703;51.248;-0.546;2023-02-22T14:41:56;100514;;;8.81;85.30
62632;BME280;48703;51.248;-0.546;2023-02-22T14:44:57;100514;;;8.79;85.70
62632;BME280;48703;51.248;-0.546;2023-02-22T14:48:00;100514;;;8.81;86.57
62632;BME280;48703;51.248;-0.546;2023-02-22T14:51:01;100514;;;8.82;85.52
62632;BME280;48703;51.248;-0.546;2023-02-22T14:54:05;100513;;;8.86;85.77
62632;BME280;48703;51.248;-0.546;2023-02-22T14:57:06;100515;;;8.91;86.21
62632;BME280;48703;51.248;-0.546;2023-02-22T15:00:11;100514;;;8.95;86.32
62632;BME280;48703;51.248;-0.546;2023-02-22T15:03:16;100516;;;8.98;85.46
62632;BME280;48703;51.248;-0.546;2023-02-22T15:06:12;100518;;;8.98;85.32
62632;BME280;48703;51.248;-0.546;2023-02-22T15:09:13;100518;;;8.99;86.04
62632;BME280;48703;51.248;-0.546;2023-02-22T15:12:20;100519;;;8.97;84.58
62632;BME280;48703;51.248;-0.546;2023-02-22T15:15:17;100519;;;8.97;84.90
62632;BME280;48703;51.248;-0.546;2023-02-22T15:18:20;100521;;;8.95;84.12
62632;BME280;48703;51.248;-0.546;2023-02-22T15:21:21;100525;;;8.94;83.88
62632;BME280;48703;51.248;-0.546;2023-02-22T15:24:23;100524;;;8.90;82.71
62632;BME280;48703;51.248;-0.546;2023-02-22T15:27:24;100525;;;8.89;82.62
62632;BME280;48703;51.248;-0.546;2023-02-22T15:30:26;100526;;;8.88;83.26
62632;BME280;48703;51.248;-0.546;2023-02-22T15:33:28;100526;;;8.86;83.36
62632;BME280;48703;51.248;-0.546;2023-02-22T15:36:29;100528;;;8.87;83.91
62632;BME280;48703;51.248;-0.546;2023-02-22T15:39:32;100530;;;8.85;83.49
62632;BME280;48703;51.248;-0.546;2023-02-22T15:42:41;100534;;;8.83;83.09
62632;BME280;48703;51.248;-0.546;2023-02-22T15:45:35;100536;;;8.83;83.32
62632;BME280;48703;51.248;-0.546;2023-02-22T15:48:37;100538;;;8.83;82.89
62632;BME280;48703;51.248;-0.546;2023-02-22T15:51:40;100540;;;8.83;83.95
62632;BME280;48703;51.248;-0.546;2023-02-22T15:54:42;100542;;;8.83;83.36
62632;BME280;48703;51.248;-0.546;2023-02-22T15:57:43;100544;;;8.84;83.50
62632;BME280;48703;51.248;-0.546;2023-02-22T16:00:46;100547;;;8.82;83.87
62632;BME280;48703;51.248;-0.546;2023-02-22T16:03:47;100550;;;8.80;83.12
62632;BME280;48703;51.248;-0.546;2023-02-22T16:06:49;100548;;;8.78;83.48
62632;BME280;48703;51.248;-0.546;2023-02-22T16:09:51;100548;;;8.76;84.12
62632;BME280;48703;51.248;-0.546;2023-02-22T16:13:02;100549;;;8.76;84.21
62632;BME280;48703;51.248;-0.546;2023-02-22T16:15:56;100549;;;8.74;82.94
62632;BME280;48703;51.248;-0.546;2023-02-22T16:19:23;100549;;;8.75;84.07
62632;BME280;48703;51.248;-0.546;2023-02-22T16:21:59;100552;;;8.75;84.71
62632;BME280;48703;51.248;-0.546;2023-02-22T16:25:32;100554;;;8.72;83.58
62632;BME280;48703;51.248;-0.546;2023-02-22T16:28:03;100558;;;8.71;83.57
62632;BME280;48703;51.248;-0.546;2023-02-22T16:31:06;100564;;;8.69;84.04